createdAt,value
2019-05-09T00:01:40.842Z,10.00
2019-05-09T00:03:44.868Z,10.00
2019-05-09T00:05:48.744Z,9.90
2019-05-09T00:07:53.209Z,10.00
2019-05-09T00:09:57.367Z,9.90
2019-05-09T00:12:03.537Z,9.80
2019-05-09T00:14:06.943Z,9.80
2019-05-09T00:16:10.783Z,9.70
2019-05-09T00:18:14.629Z,9.70
2019-05-09T00:20:27.725Z,9.60
2019-05-09T00:22:33.267Z,9.60
2019-05-09T00:24:37.283Z,9.60
2019-05-09T00:26:41.236Z,9.60
2019-05-09T00:28:47.991Z,9.60
2019-05-09T00:31:13.820Z,9.60
2019-05-09T00:33:20.568Z,9.60
2019-05-09T00:35:33.679Z,9.60
2019-05-09T00:38:14.528Z,9.70
2019-05-09T00:40:18.403Z,9.60
2019-05-09T00:42:24.043Z,9.60
2019-05-09T00:44:29.927Z,9.60
2019-05-09T00:46:40.039Z,9.60
2019-05-09T00:49:05.292Z,9.50
2019-05-09T00:51:09.271Z,9.50
2019-05-09T00:53:13.778Z,9.50
2019-05-09T00:55:17.839Z,9.40
2019-05-09T00:57:33.914Z,9.40
2019-05-09T00:59:37.797Z,9.40
2019-05-09T01:01:43.736Z,9.40
2019-05-09T01:03:47.350Z,9.40
2019-05-09T01:05:51.239Z,9.40
2019-05-09T01:07:55.245Z,9.40
2019-05-09T01:09:59.063Z,9.30
2019-05-09T01:12:04.165Z,9.30
2019-05-09T01:14:08.288Z,9.30
2019-05-09T01:16:13.414Z,9.30
2019-05-09T01:18:17.531Z,9.40
2019-05-09T01:20:24.177Z,9.40
2019-05-09T01:22:28.383Z,9.50
2019-05-09T01:24:33.776Z,9.50
2019-05-09T01:26:38.027Z,9.50
2019-05-09T01:28:44.087Z,9.40
2019-05-09T01:30:47.635Z,9.40
2019-05-09T01:33:03.576Z,9.40
2019-05-09T01:35:07.787Z,9.40
2019-05-09T01:37:13.899Z,9.40
2019-05-09T01:39:17.582Z,9.40
2019-05-09T01:41:27.979Z,9.40
2019-05-09T01:43:27.203Z,9.40
2019-05-09T01:45:34.287Z,9.40
2019-05-09T01:47:38.243Z,9.40
2019-05-09T01:49:43.183Z,9.30
2019-05-09T01:51:47.269Z,9.30
2019-05-09T01:53:53.634Z,9.30
2019-05-09T01:55:58.091Z,9.30
2019-05-09T01:58:03.359Z,9.30
2019-05-09T02:00:08.188Z,9.30
2019-05-09T02:02:14.194Z,9.30
2019-05-09T02:04:18.662Z,9.30
2019-05-09T02:06:24.325Z,9.30
2019-05-09T02:08:28.476Z,9.30
2019-05-09T02:10:34.608Z,9.30
2019-05-09T02:12:38.022Z,9.30
2019-05-09T02:14:49.033Z,9.30
2019-05-09T02:17:03.099Z,9.40
2019-05-09T02:19:13.622Z,9.50
2019-05-09T02:21:17.116Z,9.50
2019-05-09T02:23:22.852Z,9.40
2019-05-09T02:25:26.823Z,9.40
2019-05-09T02:27:33.092Z,9.40
2019-05-09T02:29:36.355Z,9.40
2019-05-09T02:31:40.194Z,9.30
2019-05-09T02:33:45.594Z,9.30
2019-05-09T02:35:56.837Z,9.40
2019-05-09T02:37:58.505Z,9.40
2019-05-09T02:40:01.052Z,9.30
2019-05-09T02:42:10.749Z,9.20
2019-05-09T02:44:10.446Z,9.20
2019-05-09T02:46:33.484Z,9.20
2019-05-09T02:48:38.661Z,9.20
2019-05-09T02:50:42.699Z,9.20
2019-05-09T02:52:48.658Z,9.20
2019-05-09T02:54:52.219Z,9.10
2019-05-09T02:56:58.017Z,9.20
2019-05-09T02:59:18.991Z,9.10
2019-05-09T03:01:32.792Z,9.10
2019-05-09T03:03:39.336Z,9.10
2019-05-09T03:05:43.451Z,9.10
2019-05-09T03:07:50.756Z,9.10
2019-05-09T03:09:54.682Z,9.10
2019-05-09T03:11:59.275Z,9.10
2019-05-09T03:14:04.537Z,9.10
2019-05-09T03:16:13.057Z,9.00
2019-05-09T03:18:18.425Z,9.00
2019-05-09T03:20:34.456Z,9.00
2019-05-09T03:22:39.548Z,9.00
2019-05-09T03:24:43.629Z,9.00
2019-05-09T03:26:51.820Z,9.00
2019-05-09T03:29:24.609Z,9.00
2019-05-09T03:31:30.175Z,9.00
2019-05-09T03:33:35.656Z,9.00
2019-05-09T03:35:39.781Z,9.00
2019-05-09T03:37:45.269Z,9.00
2019-05-09T03:39:49.293Z,9.00
2019-05-09T03:41:53.113Z,9.00
2019-05-09T03:43:58.602Z,9.00
2019-05-09T03:46:18.080Z,9.00
2019-05-09T03:48:37.487Z,9.10
2019-05-09T03:50:41.381Z,9.20
2019-05-09T03:52:47.610Z,9.20
2019-05-09T03:54:50.927Z,9.30
2019-05-09T03:57:28.738Z,9.30
2019-05-09T03:59:32.613Z,9.30
2019-05-09T04:01:38.195Z,9.20
2019-05-09T04:03:42.159Z,9.20
2019-05-09T04:05:56.594Z,9.30
2019-05-09T04:07:51.861Z,9.30
2019-05-09T04:09:58.370Z,9.30
2019-05-09T04:12:01.495Z,9.30
2019-05-09T04:14:09.236Z,9.30
2019-05-09T04:16:13.047Z,9.30
2019-05-09T04:18:17.772Z,9.20
2019-05-09T04:20:21.716Z,9.30
2019-05-09T04:22:27.164Z,9.30
2019-05-09T04:24:31.291Z,9.40
2019-05-09T04:26:40.904Z,9.40
2019-05-09T04:28:44.826Z,9.30
2019-05-09T04:30:50.521Z,9.30
2019-05-09T04:32:54.326Z,9.40
2019-05-09T04:34:58.296Z,9.50
2019-05-09T04:37:02.214Z,9.50
2019-05-09T04:39:07.808Z,9.60
2019-05-09T04:41:18.367Z,9.60
2019-05-09T04:43:26.988Z,9.70
2019-05-09T04:45:33.170Z,9.70
2019-05-09T04:47:41.435Z,9.70
2019-05-09T04:49:45.256Z,9.80
2019-05-09T04:51:48.165Z,9.90
2019-05-09T04:53:51.991Z,9.90
2019-05-09T04:55:58.047Z,10.00
2019-05-09T04:58:01.975Z,10.00
2019-05-09T05:00:07.963Z,10.10
2019-05-09T05:02:31.249Z,10.10
2019-05-09T05:04:37.294Z,10.00
2019-05-09T05:06:40.971Z,10.00
2019-05-09T05:08:44.893Z,10.00
2019-05-09T05:10:48.935Z,10.00
2019-05-09T05:12:52.867Z,9.90
2019-05-09T05:14:57.987Z,10.00
2019-05-09T05:17:07.563Z,10.00
2019-05-09T05:19:07.900Z,10.10
2019-05-09T05:21:11.796Z,10.10
2019-05-09T05:23:22.247Z,10.00
2019-05-09T05:25:27.879Z,10.10
2019-05-09T05:27:32.055Z,10.00
2019-05-09T05:29:38.179Z,9.90
2019-05-09T05:31:41.513Z,10.00
2019-05-09T05:34:02.315Z,10.00
2019-05-09T05:36:08.117Z,10.00
2019-05-09T05:38:12.093Z,10.10
2019-05-09T05:40:17.791Z,10.10
2019-05-09T05:42:22.359Z,10.10
2019-05-09T05:44:28.292Z,10.00
2019-05-09T05:46:52.442Z,10.00
2019-05-09T05:48:57.764Z,10.00
2019-05-09T05:51:02.082Z,10.00
2019-05-09T05:53:07.943Z,10.20
2019-05-09T05:55:11.940Z,10.10
2019-05-09T05:57:17.715Z,10.10
2019-05-09T05:59:21.610Z,10.20
2019-05-09T06:01:27.688Z,10.20
2019-05-09T06:03:31.275Z,10.30
2019-05-09T06:05:35.128Z,10.30
2019-05-09T06:07:38.963Z,10.30
2019-05-09T06:09:43.854Z,10.30
2019-05-09T06:11:48.517Z,10.40
2019-05-09T06:13:57.511Z,10.50
2019-05-09T06:15:58.767Z,10.60
2019-05-09T06:18:03.023Z,10.60
2019-05-09T06:20:09.142Z,10.60
2019-05-09T06:22:13.211Z,10.60
2019-05-09T06:24:17.806Z,10.60
2019-05-09T06:26:21.998Z,10.60
2019-05-09T06:28:27.414Z,10.60
2019-05-09T06:30:32.114Z,10.70
2019-05-09T06:32:38.473Z,10.80
2019-05-09T06:34:42.325Z,10.90
2019-05-09T06:36:48.705Z,11.00
2019-05-09T06:38:52.267Z,11.00
2019-05-09T06:40:58.119Z,10.90
2019-05-09T06:43:18.281Z,10.80
2019-05-09T06:45:41.667Z,11.00
2019-05-09T06:47:48.651Z,11.00
2019-05-09T06:49:54.187Z,11.00
2019-05-09T06:51:58.212Z,10.90
2019-05-09T06:54:02.320Z,10.70
2019-05-09T06:56:07.418Z,10.80
2019-05-09T06:58:29.297Z,10.80
2019-05-09T07:00:52.557Z,10.80
2019-05-09T07:03:08.452Z,10.80
2019-05-09T07:05:18.169Z,10.70
2019-05-09T07:07:40.571Z,10.50
2019-05-09T07:09:48.064Z,10.50
2019-05-09T07:11:52.251Z,10.50
2019-05-09T07:13:57.896Z,10.50
2019-05-09T07:16:02.001Z,10.60
2019-05-09T07:18:07.963Z,10.80
2019-05-09T07:20:11.909Z,10.90
2019-05-09T07:22:27.851Z,10.90
2019-05-09T07:24:31.391Z,10.80
2019-05-09T07:26:37.363Z,10.80
2019-05-09T07:28:41.523Z,10.90
2019-05-09T07:31:07.790Z,10.90
2019-05-09T07:33:33.912Z,10.80
2019-05-09T07:35:38.330Z,10.90
2019-05-09T07:37:42.415Z,10.90
2019-05-09T07:39:48.379Z,10.90
2019-05-09T07:41:52.086Z,10.80
2019-05-09T07:43:58.103Z,10.80
2019-05-09T07:46:05.732Z,10.80
2019-05-09T07:48:09.633Z,10.80
2019-05-09T07:50:14.339Z,10.80
2019-05-09T07:52:18.731Z,10.80
2019-05-09T07:54:25.680Z,10.80
2019-05-09T07:56:28.653Z,10.80
2019-05-09T07:58:32.631Z,10.90
2019-05-09T08:00:38.456Z,10.80
2019-05-09T08:02:42.264Z,10.80
2019-05-09T08:04:48.674Z,10.80
2019-05-09T08:06:52.207Z,10.90
2019-05-09T08:08:58.099Z,11.00
2019-05-09T08:11:01.862Z,11.00
2019-05-09T08:13:08.241Z,11.20
2019-05-09T08:15:16.422Z,11.50
2019-05-09T08:17:18.092Z,11.60
2019-05-09T08:19:22.117Z,11.80
2019-05-09T08:21:27.647Z,11.70
2019-05-09T08:23:32.100Z,11.60
2019-05-09T08:25:38.038Z,11.50
2019-05-09T08:27:41.519Z,11.40
2019-05-09T08:29:47.766Z,11.40
2019-05-09T08:31:51.256Z,11.50
2019-05-09T08:33:55.090Z,11.50
2019-05-09T08:35:59.042Z,11.50
2019-05-09T08:38:02.892Z,11.50
2019-05-09T08:40:08.130Z,11.60
2019-05-09T08:42:12.195Z,11.60
2019-05-09T08:44:18.457Z,11.80
2019-05-09T08:46:21.883Z,11.90
2019-05-09T08:48:25.752Z,12.00
2019-05-09T08:50:48.841Z,12.10
2019-05-09T08:52:54.409Z,12.20
2019-05-09T08:54:58.711Z,12.20
2019-05-09T08:57:02.668Z,12.10
2019-05-09T08:59:08.905Z,12.20
2019-05-09T09:01:12.972Z,12.20
2019-05-09T09:03:18.535Z,12.40
2019-05-09T09:05:22.664Z,12.50
2019-05-09T09:07:29.699Z,12.80
2019-05-09T09:09:32.322Z,12.80
2019-05-09T09:11:38.435Z,12.80
2019-05-09T09:13:41.896Z,12.70
2019-05-09T09:16:04.527Z,12.90
2019-05-09T09:17:51.387Z,13.00
2019-05-09T09:19:55.287Z,13.00
2019-05-09T09:22:00.602Z,12.90
2019-05-09T09:24:04.760Z,13.00
2019-05-09T09:26:08.846Z,13.10
2019-05-09T09:28:12.884Z,13.10
2019-05-09T09:30:24.188Z,13.40
2019-05-09T09:32:22.721Z,13.60
2019-05-09T09:34:27.731Z,13.70
2019-05-09T09:36:33.987Z,13.70
2019-05-09T09:38:37.919Z,13.70
2019-05-09T09:40:41.752Z,13.90
2019-05-09T09:42:48.830Z,14.10
2019-05-09T09:44:51.461Z,14.10
2019-05-09T09:46:57.960Z,13.90
2019-05-09T09:49:01.454Z,13.70
2019-05-09T09:51:07.865Z,13.70
2019-05-09T09:53:11.207Z,14.00
2019-05-09T09:55:19.183Z,14.00
2019-05-09T09:57:23.201Z,14.00
2019-05-09T09:59:49.443Z,13.80
2019-05-09T10:01:54.341Z,13.90
2019-05-09T10:04:16.606Z,14.00
2019-05-09T10:06:12.099Z,14.30
2019-05-09T10:08:18.210Z,14.30
2019-05-09T10:10:33.647Z,14.30
2019-05-09T10:12:43.665Z,14.10
2019-05-09T10:14:47.127Z,14.20
2019-05-09T10:17:10.493Z,14.60
2019-05-09T10:19:38.376Z,14.80
2019-05-09T10:21:45.508Z,15.00
2019-05-09T10:23:49.316Z,15.30
2019-05-09T10:25:53.240Z,15.20
2019-05-09T10:27:57.099Z,15.20
2019-05-09T10:30:01.012Z,15.00
2019-05-09T10:32:08.936Z,14.90
2019-05-09T10:34:12.520Z,15.00
2019-05-09T10:36:16.565Z,15.00
2019-05-09T10:38:20.436Z,15.20
2019-05-09T10:40:24.527Z,15.10
2019-05-09T10:42:38.154Z,15.10
2019-05-09T10:44:46.065Z,15.10
2019-05-09T10:47:01.981Z,14.90
2019-05-09T10:49:04.392Z,14.90
2019-05-09T10:51:10.482Z,14.90
2019-05-09T10:53:14.215Z,14.70
2019-05-09T10:55:18.124Z,14.60
2019-05-09T10:57:22.119Z,14.60
2019-05-09T10:59:26.149Z,14.50
2019-05-09T11:01:30.091Z,14.60
2019-05-09T11:03:34.028Z,14.70
2019-05-09T11:05:38.169Z,14.40
2019-05-09T11:07:42.027Z,14.60
2019-05-09T11:09:48.044Z,15.10
2019-05-09T11:11:51.533Z,15.20
2019-05-09T11:13:58.287Z,15.30
2019-05-09T11:16:01.381Z,15.40
2019-05-09T11:18:07.924Z,15.40
2019-05-09T11:20:11.535Z,15.50
2019-05-09T11:22:18.158Z,15.60
2019-05-09T11:24:21.239Z,15.70
2019-05-09T11:26:25.243Z,15.80
2019-05-09T11:28:29.131Z,16.10
2019-05-09T11:30:33.175Z,16.60
2019-05-09T11:32:38.582Z,17.10
2019-05-09T11:34:42.644Z,17.60
2019-05-09T11:36:46.564Z,18.30
2019-05-09T11:38:50.539Z,18.00
2019-05-09T11:40:54.505Z,17.50
2019-05-09T11:42:58.473Z,17.20
2019-05-09T11:45:02.429Z,16.70
2019-05-09T11:47:06.336Z,16.50
2019-05-09T11:49:10.307Z,16.60
2019-05-09T11:51:14.383Z,16.50
2019-05-09T11:53:18.316Z,16.20
2019-05-09T11:55:32.698Z,16.10
2019-05-09T11:57:31.292Z,16.40
2019-05-09T11:59:33.443Z,17.00
2019-05-09T12:01:39.733Z,17.60
2019-05-09T12:03:42.980Z,18.50
2019-05-09T12:05:47.729Z,19.20
2019-05-09T12:07:51.733Z,19.10
2019-05-09T12:09:55.820Z,18.60
2019-05-09T12:11:59.804Z,18.50
2019-05-09T12:14:03.783Z,18.80
2019-05-09T12:16:07.715Z,18.70
2019-05-09T12:18:11.896Z,18.30
2019-05-09T12:20:18.095Z,18.70
2019-05-09T12:22:22.292Z,18.70
2019-05-09T12:24:26.113Z,19.30
2019-05-09T12:26:29.964Z,19.90
2019-05-09T12:28:33.838Z,19.70
2019-05-09T12:30:38.048Z,20.00
2019-05-09T12:32:42.108Z,20.40
2019-05-09T12:34:47.967Z,19.30
2019-05-09T12:36:51.827Z,18.80
2019-05-09T12:38:55.788Z,18.60
2019-05-09T12:41:00.678Z,18.40
2019-05-09T12:43:04.835Z,18.70
2019-05-09T12:45:09.834Z,19.20
2019-05-09T12:47:13.990Z,19.90
2019-05-09T12:49:18.895Z,20.50
2019-05-09T12:51:23.127Z,20.60
2019-05-09T12:53:28.038Z,21.70
2019-05-09T12:55:32.177Z,21.20
2019-05-09T12:57:38.452Z,20.50
2019-05-09T12:59:48.475Z,19.30
2019-05-09T13:01:49.152Z,19.20
2019-05-09T13:03:53.153Z,19.80
2019-05-09T13:05:57.700Z,20.50
2019-05-09T13:08:01.684Z,20.00
2019-05-09T13:10:05.799Z,19.40
2019-05-09T13:12:09.868Z,19.00
2019-05-09T13:14:13.893Z,18.50
2019-05-09T13:16:38.958Z,18.00
2019-05-09T13:18:49.028Z,17.90
2019-05-09T13:20:53.123Z,18.00
2019-05-09T13:22:58.903Z,17.90
2019-05-09T13:25:03.169Z,17.80
2019-05-09T13:27:07.948Z,18.20
2019-05-09T13:29:12.038Z,18.50
2019-05-09T13:31:18.206Z,18.70
2019-05-09T13:33:21.582Z,18.60
2019-05-09T13:35:27.822Z,18.40
2019-05-09T13:37:31.411Z,18.40
2019-05-09T13:39:35.389Z,18.40
2019-05-09T13:41:39.747Z,18.10
2019-05-09T13:43:47.662Z,17.90
2019-05-09T13:45:49.442Z,18.00
2019-05-09T13:47:53.310Z,18.00
2019-05-09T13:49:59.087Z,18.10
2019-05-09T13:52:04.938Z,18.10
2019-05-09T13:54:08.431Z,17.80
2019-05-09T13:56:12.338Z,17.70
2019-05-09T13:58:19.265Z,17.60
2019-05-09T14:00:22.137Z,17.40
2019-05-09T14:02:28.544Z,17.20
2019-05-09T14:04:31.754Z,17.20
2019-05-09T14:06:38.434Z,17.30
2019-05-09T14:08:41.459Z,17.90
2019-05-09T14:10:48.175Z,18.40
2019-05-09T14:13:05.635Z,18.00
2019-05-09T14:14:58.177Z,17.90
2019-05-09T14:17:02.232Z,17.80
2019-05-09T14:19:25.945Z,17.70
2019-05-09T14:21:11.847Z,17.80
2019-05-09T14:23:18.868Z,17.70
2019-05-09T14:25:21.349Z,17.60
2019-05-09T14:27:25.174Z,17.60
2019-05-09T14:29:31.687Z,17.50
2019-05-09T14:31:34.913Z,17.40
2019-05-09T14:33:39.026Z,17.40
2019-05-09T14:35:43.076Z,17.40
2019-05-09T14:37:48.739Z,17.60
2019-05-09T14:39:58.358Z,17.70
2019-05-09T14:41:58.330Z,18.00
2019-05-09T14:44:02.440Z,18.10
2019-05-09T14:46:08.171Z,18.10
2019-05-09T14:48:12.362Z,18.20
2019-05-09T14:50:18.093Z,18.30
2019-05-09T14:52:23.293Z,18.30
2019-05-09T14:54:28.915Z,18.50
2019-05-09T14:56:32.774Z,18.50
2019-05-09T14:58:38.747Z,18.70
2019-05-09T15:00:42.355Z,19.40
2019-05-09T15:02:48.706Z,19.40
2019-05-09T15:04:51.991Z,19.20
2019-05-09T15:06:57.837Z,19.20
2019-05-09T15:09:01.772Z,19.70
2019-05-09T15:11:08.659Z,20.90
2019-05-09T15:13:11.367Z,22.10
2019-05-09T15:15:15.504Z,23.10
2019-05-09T15:17:19.373Z,23.90
2019-05-09T15:19:23.314Z,24.20
2019-05-09T15:21:27.161Z,24.60
2019-05-09T15:23:31.089Z,25.00
2019-05-09T15:25:35.178Z,25.00
2019-05-09T15:27:39.335Z,24.70
2019-05-09T15:29:43.391Z,23.40
2019-05-09T15:31:52.887Z,22.70
2019-05-09T15:33:53.107Z,22.10
2019-05-09T15:35:58.891Z,22.10
2019-05-09T15:38:02.687Z,21.50
2019-05-09T15:40:08.752Z,20.70
2019-05-09T15:42:13.043Z,20.30
2019-05-09T15:44:18.716Z,20.10
2019-05-09T15:46:27.903Z,19.60
2019-05-09T15:48:31.914Z,19.40
2019-05-09T15:50:37.996Z,19.00
2019-05-09T15:52:41.509Z,18.60
2019-05-09T15:54:45.397Z,18.40
2019-05-09T15:56:49.445Z,18.50
2019-05-09T15:58:53.275Z,18.30
2019-05-09T16:00:58.883Z,18.30
2019-05-09T16:03:02.988Z,18.00
2019-05-09T16:05:10.595Z,17.70
2019-05-09T16:07:13.122Z,17.40
2019-05-09T16:09:17.975Z,17.20
2019-05-09T16:11:22.091Z,17.20
2019-05-09T16:13:28.294Z,17.00
2019-05-09T16:15:32.804Z,17.00
2019-05-09T16:17:39.331Z,16.80
2019-05-09T16:19:42.391Z,16.70
2019-05-09T16:21:47.764Z,16.80
2019-05-09T16:23:51.929Z,16.80
2019-05-09T16:25:58.383Z,16.80
2019-05-09T16:28:01.423Z,17.00
2019-05-09T16:30:08.267Z,16.90
2019-05-09T16:32:11.783Z,16.80
2019-05-09T16:34:17.785Z,16.80
2019-05-09T16:36:21.458Z,16.70
2019-05-09T16:38:41.055Z,16.80
2019-05-09T16:40:30.889Z,17.00
2019-05-09T16:42:35.079Z,17.10
2019-05-09T16:44:41.744Z,17.10
2019-05-09T16:46:44.728Z,17.20
2019-05-09T16:48:48.739Z,17.20
2019-05-09T16:51:00.382Z,17.20
2019-05-09T16:52:58.603Z,17.20
2019-05-09T16:55:08.198Z,17.00
2019-05-09T16:57:12.283Z,17.10
2019-05-09T16:59:17.836Z,17.00
2019-05-09T17:01:22.287Z,17.10
2019-05-09T17:03:28.217Z,17.20
2019-05-09T17:05:33.179Z,17.60
2019-05-09T17:07:38.464Z,17.80
2019-05-09T17:09:44.810Z,17.90
2019-05-09T17:11:48.743Z,17.90
2019-05-09T17:13:52.828Z,17.80
2019-05-09T17:15:56.755Z,17.70
2019-05-09T17:18:00.694Z,17.60
2019-05-09T17:20:06.409Z,17.40
2019-05-09T17:22:15.251Z,17.70
2019-05-09T17:24:19.628Z,18.20
2019-05-09T17:26:23.560Z,18.30
2019-05-09T17:28:28.453Z,18.20
2019-05-09T17:30:32.661Z,17.90
2019-05-09T17:32:37.971Z,17.60
2019-05-09T17:34:42.513Z,17.50
2019-05-09T17:36:46.624Z,17.40
2019-05-09T17:38:50.936Z,17.90
2019-05-09T17:40:57.416Z,18.50
2019-05-09T17:43:00.507Z,18.40
2019-05-09T17:45:04.880Z,18.20
2019-05-09T17:47:08.857Z,18.00
2019-05-09T17:49:12.934Z,17.80
2019-05-09T17:51:31.631Z,17.50
2019-05-09T17:53:22.857Z,17.20
2019-05-09T17:55:26.907Z,17.00
2019-05-09T17:57:30.845Z,16.80
2019-05-09T17:59:34.900Z,16.70
2019-05-09T18:01:38.917Z,16.60
2019-05-09T18:03:43.126Z,16.50
2019-05-09T18:05:48.642Z,16.50
2019-05-09T18:07:52.867Z,16.40
2019-05-09T18:09:58.090Z,16.40
2019-05-09T18:12:02.411Z,16.30
2019-05-09T18:14:08.044Z,16.30
2019-05-09T18:16:12.325Z,16.30
2019-05-09T18:18:18.395Z,16.20
2019-05-09T18:20:21.904Z,16.10
2019-05-09T18:22:26.030Z,16.20
2019-05-09T18:24:30.227Z,16.10
2019-05-09T18:26:34.071Z,16.10
2019-05-09T18:28:38.532Z,16.10
2019-05-09T18:30:42.786Z,16.00
2019-05-09T18:33:15.003Z,16.00
2019-05-09T18:35:21.179Z,16.00
2019-05-09T18:37:27.763Z,15.90
2019-05-09T18:39:31.834Z,15.90
2019-05-09T18:41:36.986Z,15.90
2019-05-09T18:43:40.897Z,15.90
2019-05-09T18:45:44.920Z,15.80
2019-05-09T18:47:49.314Z,15.80
2019-05-09T18:49:54.777Z,15.70
2019-05-09T18:52:04.400Z,15.70
2019-05-09T18:54:08.876Z,15.60
2019-05-09T18:56:13.050Z,15.60
2019-05-09T18:58:16.973Z,15.60
2019-05-09T19:00:21.959Z,15.60
2019-05-09T19:02:26.318Z,15.40
2019-05-09T19:04:30.585Z,15.30
2019-05-09T19:06:35.151Z,15.40
2019-05-09T19:08:39.170Z,15.40
2019-05-09T19:10:43.536Z,15.40
2019-05-09T19:12:47.509Z,15.20
2019-05-09T19:14:51.563Z,15.20
2019-05-09T19:17:23.659Z,15.20
2019-05-09T19:19:37.918Z,15.20
2019-05-09T19:21:48.781Z,15.00
2019-05-09T19:23:52.657Z,15.10
2019-05-09T19:25:58.246Z,15.10
2019-05-09T19:28:02.145Z,15.10
2019-05-09T19:30:06.425Z,15.00
2019-05-09T19:32:11.428Z,14.90
2019-05-09T19:34:15.887Z,15.00
2019-05-09T19:36:19.941Z,14.90
2019-05-09T19:38:23.807Z,14.80
2019-05-09T19:40:28.412Z,14.80
2019-05-09T19:42:33.004Z,14.80
2019-05-09T19:44:41.153Z,14.90
2019-05-09T19:46:45.330Z,14.90
2019-05-09T19:48:49.521Z,14.80
2019-05-09T19:50:53.737Z,14.80
2019-05-09T19:52:58.135Z,14.80
2019-05-09T19:55:02.868Z,14.70
2019-05-09T19:57:07.325Z,14.70
2019-05-09T19:59:11.938Z,14.70
2019-05-09T20:01:15.960Z,14.50
2019-05-09T20:03:23.602Z,14.40
2019-05-09T20:05:27.964Z,14.50
2019-05-09T20:07:32.078Z,14.50
2019-05-09T20:09:51.030Z,14.40
2019-05-09T20:12:15.275Z,14.40
2019-05-09T20:14:23.325Z,14.30
2019-05-09T20:16:28.807Z,14.30
2019-05-09T20:18:32.729Z,14.40
2019-05-09T20:20:36.769Z,14.20
2019-05-09T20:22:51.880Z,14.10
2019-05-09T20:24:46.814Z,14.10
2019-05-09T20:26:51.017Z,14.00
2019-05-09T20:28:55.620Z,13.80
2019-05-09T20:30:59.541Z,13.70
2019-05-09T20:33:03.671Z,13.70
2019-05-09T20:35:08.323Z,13.80
2019-05-09T20:37:12.835Z,13.90
2019-05-09T20:39:17.304Z,13.80
2019-05-09T20:41:22.053Z,13.90
2019-05-09T20:43:26.183Z,13.90
2019-05-09T20:45:31.135Z,13.90
2019-05-09T20:47:35.571Z,13.80
2019-05-09T20:49:39.828Z,13.80
2019-05-09T20:51:44.196Z,13.90
2019-05-09T20:53:48.223Z,14.00
2019-05-09T20:55:52.468Z,13.90
2019-05-09T20:57:56.732Z,13.80
2019-05-09T21:00:00.767Z,13.80
2019-05-09T21:02:05.181Z,13.80
2019-05-09T21:04:09.489Z,13.70
2019-05-09T21:06:13.738Z,13.60
2019-05-09T21:08:20.561Z,13.70
2019-05-09T21:10:25.125Z,13.70
2019-05-09T21:12:29.472Z,13.80
2019-05-09T21:14:33.627Z,13.80
2019-05-09T21:16:38.111Z,13.80
2019-05-09T21:18:42.851Z,13.90
2019-05-09T21:20:47.040Z,14.00
2019-05-09T21:22:51.375Z,13.90
2019-05-09T21:24:55.748Z,14.00
2019-05-09T21:27:00.313Z,13.90
2019-05-09T21:29:04.811Z,13.80
2019-05-09T21:31:08.904Z,13.70
2019-05-09T21:33:13.075Z,13.80
2019-05-09T21:35:17.332Z,13.80
2019-05-09T21:37:21.178Z,13.80
2019-05-09T21:39:25.127Z,13.70
2019-05-09T21:41:29.043Z,13.60
2019-05-09T21:43:33.165Z,13.50
2019-05-09T21:45:37.256Z,13.50
2019-05-09T21:47:41.320Z,13.50
2019-05-09T21:49:45.380Z,13.40
2019-05-09T21:51:49.244Z,13.30
2019-05-09T21:53:53.164Z,13.40
2019-05-09T21:55:57.747Z,13.50
2019-05-09T21:58:01.593Z,13.50
2019-05-09T22:00:09.663Z,13.40
2019-05-09T22:02:14.360Z,13.40
2019-05-09T22:04:18.338Z,13.40
2019-05-09T22:06:22.380Z,13.30
2019-05-09T22:08:26.547Z,13.30
2019-05-09T22:10:30.554Z,13.30
2019-05-09T22:12:34.539Z,13.30
2019-05-09T22:14:38.479Z,13.40
2019-05-09T22:16:43.635Z,13.40
2019-05-09T22:18:47.811Z,13.40
2019-05-09T22:20:51.763Z,13.30
2019-05-09T22:22:55.717Z,13.20
2019-05-09T22:24:59.667Z,13.20
2019-05-09T22:27:04.009Z,13.20
2019-05-09T22:29:07.904Z,13.20
2019-05-09T22:31:11.910Z,13.00
2019-05-09T22:33:15.844Z,12.90
2019-05-09T22:35:21.476Z,13.00
2019-05-09T22:37:25.445Z,13.00
2019-05-09T22:39:29.377Z,13.10
2019-05-09T22:41:33.515Z,13.10
2019-05-09T22:43:37.604Z,13.10
2019-05-09T22:45:41.966Z,13.10
2019-05-09T22:47:46.053Z,13.10
2019-05-09T22:49:52.487Z,13.10
2019-05-09T22:51:55.658Z,13.00
2019-05-09T22:54:12.089Z,12.90
2019-05-09T22:56:05.494Z,13.00
2019-05-09T22:58:09.471Z,12.90
2019-05-09T23:00:14.413Z,12.80
2019-05-09T23:02:18.262Z,12.80
2019-05-09T23:04:22.251Z,12.80
2019-05-09T23:06:26.217Z,12.90
2019-05-09T23:08:30.124Z,12.90
2019-05-09T23:10:34.194Z,13.00
2019-05-09T23:12:38.144Z,13.00
2019-05-09T23:14:42.177Z,13.00
2019-05-09T23:16:46.083Z,12.90
2019-05-09T23:18:50.328Z,12.90
2019-05-09T23:20:56.379Z,12.90
2019-05-09T23:23:07.006Z,12.80
2019-05-09T23:25:11.135Z,12.80
2019-05-09T23:27:17.048Z,12.80
2019-05-09T23:29:20.876Z,12.80
2019-05-09T23:31:34.087Z,12.90
2019-05-09T23:33:39.935Z,12.80
2019-05-09T23:35:43.827Z,12.80
2019-05-09T23:37:47.758Z,12.90
2019-05-09T23:39:51.780Z,12.90
2019-05-09T23:41:55.779Z,12.80
2019-05-09T23:43:59.687Z,12.80
2019-05-09T23:46:03.516Z,12.90
2019-05-09T23:48:07.481Z,12.80
2019-05-09T23:50:11.584Z,12.80
2019-05-09T23:52:15.520Z,12.80
2019-05-09T23:54:47.620Z,12.70
2019-05-09T23:57:02.619Z,12.60
2019-05-09T23:59:24.393Z,12.80
